Pagina principale
METAR-TAF:

METAR-TAF

Aeroporti :

Tunisi, Tunisia

Aeroporto di Tunisi-Cartagine

latitudine: 36-50N, longitudine: 010-14E, altezza: 3 m

Osservazione

Il bollettino è stato emesso 20 minuti fa, alle 15:30 UTC
Vento 12 kt da ovest, variando fra ovest/sud-ovest e nord-ovest
Temperature 18°C
Umidità 59%
Pressione 1017 hPa
Visibilità 10 km o più
Nubi sparse ad un'altezza di 2600 ft

METAR: DTTA 191530Z 28012KT 250V320 9999 SCT026 18/10 Q1017 NOSIG

Ora: 16:50 (15:50 UTC)

Previsione

Il bollettino è stato emesso 4 ore e 47 minuti fa, alle 11:03 UTC
Previsione valida dal 19 alle 12 UTC al 20 alle 12 UTC
Vento 15 kt da ovest/nord-ovest
Visibilità 10 km o più
Nubi sparse ad un'altezza di 2600 ft
Temporaneamente
dal 19 alle 22 UTC al 20 alle 10 UTC
Vento 5 kt da ovest/sud-ovest

TAF: DTTA 191103Z 1912/2012 30015KT 9999 SCT026 TEMPO 1922/2010 24005KT

Osservazioni e previsioni meteorologiche di più di 4000 aeroporti (messaggi METAR e TAF).

Le stazioni disponibili sono rappresentate dai dischi gialli e rossi sulla carta.

Puntare il mouse per vedere il nome della stazione.

Clicca sopra per visualizzare le osservazioni e previsioni meteorologiche.

Per cambiare la mappa : fare clic sui pulsanti verdi con una croce nera per ingrandire, il pulsante verde con un trattino per diminuire, o sulla freccia verde per le mappe adiacenti.


METAR-TAF: